Time;durP1;ratioP1;P1;durP2;ratioP2;P2;SDS_P1;SDS_P2;PMS_P1;PMS_P2;Temp;Humidity;BMP_temperature;BMP_pressure;BME280_temperature;BME280_humidity;BME280_pressure;Samples;Min_cycle;Max_cycle;Signal;HPM_P1;HPM_P2
2022/02/22 00:00:27;;;;;;;19.40;7.90;;;;;;;0.43;73.61;96970.33;105925;1278;25410;-72
2022/02/22 00:03:11;;;;;;;19.80;7.40;;;;;;;0.44;73.64;96969.53;105883;1277;137157;-72
2022/02/22 00:05:39;;;;;;;20.40;7.60;;;;;;;0.43;73.19;96969.13;105727;1279;22563;-72
2022/02/22 00:08:06;;;;;;;24.20;9.10;;;;;;;0.42;72.87;96972.88;105852;1279;25235;-72
2022/02/22 00:10:33;;;;;;;24.60;8.40;;;;;;;0.40;72.76;96972.11;105843;1277;136996;-72
2022/02/22 00:13:00;;;;;;;25.30;10.50;;;;;;;0.40;72.68;96969.31;106156;1277;23083;-72
2022/02/22 00:15:27;;;;;;;27.50;9.40;;;;;;;0.41;72.57;96968.68;105999;1278;137478;-72
2022/02/22 00:17:54;;;;;;;29.80;12.40;;;;;;;0.42;72.72;96968.48;106106;1277;22582;-72
2022/02/22 00:20:21;;;;;;;32.30;13.10;;;;;;;0.45;72.67;96971.71;106261;1277;23918;-72
2022/02/22 00:22:48;;;;;;;25.50;9.50;;;;;;;0.48;72.73;96974.20;105983;1277;137431;-72
2022/02/22 00:25:15;;;;;;;20.30;8.90;;;;;;;0.54;72.48;96976.96;106069;1277;24493;-72
2022/02/22 00:27:44;;;;;;;19.30;7.70;;;;;;;0.61;72.45;96978.71;105845;1278;137282;-72
2022/02/22 00:30:12;;;;;;;27.10;10.30;;;;;;;0.67;72.47;96986.33;105903;1280;22705;-72
2022/02/22 00:32:39;;;;;;;22.80;9.00;;;;;;;0.74;72.35;96986.06;106186;1278;22581;-72
2022/02/22 00:35:11;;;;;;;21.30;8.00;;;;;;;0.80;72.09;96985.78;105799;1278;136720;-72
2022/02/22 00:37:39;;;;;;;18.90;7.20;;;;;;;0.86;72.00;96987.83;105930;1277;22729;-72
2022/02/22 00:40:09;;;;;;;25.40;10.60;;;;;;;0.90;71.70;96987.64;106354;1277;137639;-73
2022/02/22 00:42:36;;;;;;;;;;;;;;;0.92;71.62;96986.70;106534;1278;24195;-73
2022/02/22 00:45:04;;;;;;;19.80;7.50;;;;;;;0.92;71.79;96985.30;105954;1277;123354;-72
2022/02/22 00:47:31;;;;;;;22.10;8.60;;;;;;;0.91;71.81;96990.21;106063;1280;24535;-72
2022/02/22 00:49:59;;;;;;;16.40;7.60;;;;;;;0.90;71.88;96993.31;106145;1280;26510;-72
2022/02/22 00:52:26;;;;;;;19.00;8.00;;;;;;;0.88;71.80;96995.52;106106;1278;137246;-72
2022/02/22 00:54:53;;;;;;;20.00;6.90;;;;;;;0.87;72.04;97001.64;106213;1277;22544;-72
2022/02/22 00:57:20;;;;;;;15.60;6.40;;;;;;;0.86;72.06;97004.98;106123;1277;137517;-72
2022/02/22 00:59:48;;;;;;;13.80;5.60;;;;;;;0.88;72.19;97006.11;106450;1277;22575;-72
2022/02/22 01:02:15;;;;;;;18.90;6.40;;;;;;;0.93;72.35;97008.91;106569;1277;22576;-74
2022/02/22 01:04:43;;;;;;;16.20;6.40;;;;;;;0.99;72.65;97009.90;106460;1277;137287;-72
2022/02/22 01:07:16;;;;;;;14.50;6.00;;;;;;;1.04;72.75;97010.11;106195;1278;29253;-72
2022/02/22 01:09:44;;;;;;;12.50;5.30;;;;;;;1.09;72.31;97010.33;106144;1278;137022;-72
2022/02/22 01:12:14;;;;;;;14.90;5.90;;;;;;;1.17;72.18;97013.08;106263;1278;22582;-72
2022/02/22 01:14:43;;;;;;;15.90;5.20;;;;;;;1.23;72.05;97012.70;105904;1280;22627;-71
2022/02/22 01:17:11;;;;;;;12.40;5.00;;;;;;;1.30;71.93;97012.09;105993;1277;137338;-72
2022/02/22 01:19:38;;;;;;;12.30;5.70;;;;;;;1.37;71.95;97018.45;106027;1277;23066;-72
2022/02/22 01:22:05;;;;;;;13.60;5.50;;;;;;;1.43;71.85;97025.04;105995;1277;137228;-72
2022/02/22 01:24:32;;;;;;;14.20;5.30;;;;;;;1.48;71.60;97029.27;106036;1277;22575;-72
2022/02/22 01:27:13;;;;;;;11.60;5.40;;;;;;;1.52;71.36;97029.27;105919;1278;137592;-72
2022/02/22 01:29:40;;;;;;;11.90;5.30;;;;;;;1.55;71.14;97031.39;106793;1277;22566;-72
2022/02/22 01:32:08;;;;;;;15.10;5.40;;;;;;;1.59;71.20;97033.30;106597;1278;22717;-72
2022/02/22 01:34:35;;;;;;;13.40;5.70;;;;;;;1.62;71.16;97033.34;105870;1280;137118;-72
2022/02/22 01:37:03;;;;;;;11.70;4.80;;;;;;;1.65;71.11;97028.31;106081;1277;25336;-72
2022/02/22 01:39:30;;;;;;;11.50;5.20;;;;;;;1.67;71.20;97024.77;106433;1277;137812;-72
2022/02/22 01:41:57;;;;;;;16.20;5.30;;;;;;;1.72;71.15;97031.86;106334;1277;25373;-72
2022/02/22 01:44:24;;;;;;;15.00;5.40;;;;;;;1.77;71.00;97033.02;106125;1277;22567;-72
2022/02/22 01:47:02;;;;;;;13.10;5.40;;;;;;;1.82;71.09;97037.58;106047;1280;137134;-72
2022/02/22 01:49:29;;;;;;;13.40;4.90;;;;;;;1.89;71.04;97042.21;106365;1279;25270;-72
2022/02/22 01:51:57;;;;;;;12.70;5.20;;;;;;;1.93;71.19;97039.98;106040;1277;136985;-72
2022/02/22 01:54:26;;;;;;;14.30;5.10;;;;;;;1.97;71.04;97044.80;105924;1280;25258;-72
2022/02/22 01:56:53;;;;;;;13.40;5.40;;;;;;;2.00;71.07;97048.48;106126;1277;137776;-72
2022/02/22 01:59:21;;;;;;;11.40;4.90;;;;;;;2.02;70.85;97055.75;106127;1277;22551;-72
2022/02/22 02:01:48;;;;;;;7.40;4.00;;;;;;;2.05;70.96;97053.84;106360;1277;22602;-72
2022/02/22 02:04:15;;;;;;;11.10;4.80;;;;;;;2.07;71.13;97057.61;106050;1277;138193;-73
2022/02/22 02:06:42;;;;;;;17.60;4.60;;;;;;;2.09;70.94;97061.27;106226;1277;22552;-72
2022/02/22 02:09:10;;;;;;;11.70;4.20;;;;;;;2.10;70.99;97061.88;106344;1277;137602;-73
2022/02/22 02:11:56;;;;;;;13.70;4.50;;;;;;;2.11;71.03;97063.80;106521;1278;22572;-73
2022/02/22 02:14:25;;;;;;;14.10;4.50;;;;;;;2.12;71.00;97058.05;106360;1278;23067;-73
2022/02/22 02:16:53;;;;;;;9.20;4.20;;;;;;;2.12;71.11;97064.20;106412;1277;138273;-73
2022/02/22 02:19:21;;;;;;;9.70;3.40;;;;;;;2.15;71.03;97063.74;106225;1278;22584;-74
2022/02/22 02:21:49;;;;;;;11.50;3.80;;;;;;;2.21;71.07;97068.14;106427;1277;137751;-74
2022/02/22 02:24:19;;;;;;;13.00;4.00;;;;;;;2.26;71.02;97071.14;106163;1277;23042;-74
2022/02/22 02:26:47;;;;;;;8.70;3.80;;;;;;;2.31;70.98;97071.86;106260;1277;137140;-73
2022/02/22 02:29:29;;;;;;;12.20;4.10;;;;;;;2.35;70.94;97074.61;106423;1279;25388;-74
2022/02/22 02:31:57;;;;;;;7.90;3.00;;;;;;;2.38;70.93;97080.80;106301;1280;22564;-74
2022/02/22 02:34:27;;;;;;;7.90;3.10;;;;;;;2.41;71.01;97085.41;106043;1280;136844;-73
2022/02/22 02:36:55;;;;;;;8.40;3.90;;;;;;;2.42;71.09;97090.17;106095;1280;25477;-74
2022/02/22 02:39:22;;;;;;;7.90;3.40;;;;;;;2.44;71.03;97099.51;106108;1277;136955;-74
2022/02/22 02:41:50;;;;;;;11.50;3.00;;;;;;;2.44;71.12;97101.66;106480;1277;23481;-74
2022/02/22 02:44:19;;;;;;;7.30;3.30;;;;;;;2.45;71.18;97100.20;106421;1277;22567;-74
2022/02/22 02:46:48;;;;;;;8.20;3.20;;;;;;;2.47;71.36;97107.02;106246;1277;136901;-74
2022/02/22 02:49:17;;;;;;;11.10;3.60;;;;;;;2.50;71.43;97112.33;106106;1278;25445;-74
2022/02/22 02:51:45;;;;;;;10.00;3.60;;;;;;;2.55;71.52;97113.78;106666;1279;137680;-73
2022/02/22 02:54:12;;;;;;;7.00;3.50;;;;;;;2.59;71.64;97119.81;106381;1278;25210;-72
2022/02/22 02:56:40;;;;;;;12.10;3.50;;;;;;;2.63;71.80;97123.14;106095;1278;25266;-75
2022/02/22 02:59:09;;;;;;;7.10;2.90;;;;;;;2.66;71.80;97127.73;106133;1277;136701;-72
2022/02/22 03:01:38;;;;;;;8.00;3.40;;;;;;;2.69;72.00;97139.70;106159;1277;22567;-71
2022/02/22 03:04:05;;;;;;;6.60;2.10;;;;;;;2.72;72.07;97138.54;106001;1277;136891;-71
2022/02/22 03:06:32;;;;;;;6.10;1.90;;;;;;;2.74;72.11;97140.33;106520;1277;22675;-71
2022/02/22 03:09:00;;;;;;;4.30;1.50;;;;;;;2.76;72.23;97144.02;106045;1280;137181;-72
2022/02/22 03:11:27;;;;;;;6.40;2.30;;;;;;;2.78;72.31;97143.49;106261;1278;22587;-72
2022/02/22 03:13:55;;;;;;;6.30;2.10;;;;;;;2.82;72.37;97147.86;106054;1280;22560;-72
2022/02/22 03:16:22;;;;;;;4.20;1.60;;;;;;;2.89;72.35;97146.62;106237;1280;137581;-72
2022/02/22 03:18:49;;;;;;;5.80;1.60;;;;;;;2.95;72.23;97150.92;106563;1277;22566;-72
2022/02/22 03:21:16;;;;;;;5.20;1.60;;;;;;;2.99;72.29;97155.55;106552;1277;137114;-72
2022/02/22 03:23:43;;;;;;;4.30;1.90;;;;;;;3.02;72.30;97154.75;106510;1277;22640;-72
2022/02/22 03:26:10;;;;;;;3.50;1.50;;;;;;;3.04;72.23;97161.66;106006;1277;22559;-73
2022/02/22 03:28:37;;;;;;;3.90;1.60;;;;;;;3.07;72.26;97156.30;106286;1280;136909;-73
2022/02/22 03:31:05;;;;;;;4.00;1.60;;;;;;;3.09;72.40;97161.78;106016;1280;25265;-73
2022/02/22 03:33:34;;;;;;;6.90;2.20;;;;;;;3.09;72.48;97166.04;105930;1281;137343;-75
2022/02/22 03:36:03;;;;;;;4.80;2.00;;;;;;;3.10;72.61;97173.01;106419;1280;22720;-76
2022/02/22 03:38:30;;;;;;;3.60;1.80;;;;;;;3.13;72.69;97182.16;106251;1277;22553;-74
2022/02/22 03:40:58;;;;;;;3.50;1.70;;;;;;;3.15;72.78;97182.38;106356;1277;136982;-74
2022/02/22 03:43:25;;;;;;;5.30;1.80;;;;;;;3.17;72.90;97186.52;105974;1277;22723;-74
2022/02/22 03:45:52;;;;;;;3.10;1.60;;;;;;;3.18;73.09;97194.23;105956;1277;136942;-74
2022/02/22 03:48:19;;;;;;;4.00;2.10;;;;;;;3.18;73.40;97201.41;106031;1277;23296;-74
2022/02/22 03:50:48;;;;;;;7.30;1.90;;;;;;;3.17;73.59;97199.55;105912;1280;137716;-74
2022/02/22 03:53:16;;;;;;;6.20;2.10;;;;;;;3.16;73.95;97206.11;106073;1277;22624;-74
2022/02/22 03:55:44;;;;;;;4.70;2.10;;;;;;;3.14;74.39;97208.08;105978;1280;22589;-74
2022/02/22 03:58:11;;;;;;;2.10;1.80;;;;;;;3.14;74.66;97211.51;105926;1278;138772;-74
2022/02/22 04:00:38;;;;;;;3.00;1.60;;;;;;;3.15;75.04;97220.15;106014;1277;23960;-74
2022/02/22 04:03:06;;;;;;;5.00;1.40;;;;;;;3.14;75.30;97227.58;105813;1277;136990;-74
2022/02/22 04:05:33;;;;;;;1.70;1.50;;;;;;;3.12;75.36;97238.04;106080;1277;23684;-74
2022/02/22 04:08:01;;;;;;;1.90;1.40;;;;;;;3.09;75.66;97241.84;106652;1277;22580;-74
2022/02/22 04:10:28;;;;;;;2.00;1.50;;;;;;;3.07;75.80;97249.63;106209;1280;137376;-74
2022/02/22 04:12:55;;;;;;;3.50;1.30;;;;;;;3.04;75.93;97254.88;106028;1278;25303;-74
2022/02/22 04:15:22;;;;;;;1.20;1.10;;;;;;;3.01;76.10;97271.80;106085;1279;137079;-74
2022/02/22 04:18:03;;;;;;;1.90;1.20;;;;;;;2.97;76.07;97274.52;105948;1280;22550;-76
2022/02/22 04:20:30;;;;;;;1.30;1.20;;;;;;;2.92;76.20;97280.55;105956;1277;22553;-76
2022/02/22 04:22:57;;;;;;;0.80;0.80;;;;;;;2.87;76.26;97288.36;105936;1277;137211;-74
2022/02/22 04:25:24;;;;;;;3.00;0.90;;;;;;;2.83;76.13;97295.44;106093;1277;22552;-74
2022/02/22 04:27:51;;;;;;;1.20;1.00;;;;;;;2.81;76.21;97298.23;105860;1277;137825;-74
2022/02/22 04:30:18;;;;;;;0.80;0.80;;;;;;;2.81;76.24;97304.23;106177;1277;25328;-75
2022/02/22 04:32:46;;;;;;;1.80;1.00;;;;;;;2.77;76.37;97308.35;106222;1277;24343;-74
2022/02/22 04:35:13;;;;;;;1.40;1.10;;;;;;;2.72;76.53;97312.35;106009;1278;136720;-75
2022/02/22 04:37:40;;;;;;;2.30;1.20;;;;;;;2.68;76.60;97310.40;105912;1278;22592;-74
2022/02/22 04:40:08;;;;;;;1.80;1.30;;;;;;;2.68;76.50;97310.81;105942;1277;138031;-74
2022/02/22 04:42:36;;;;;;;2.40;1.40;;;;;;;2.66;76.34;97312.98;106050;1277;22608;-74
2022/02/22 04:45:04;;;;;;;1.70;1.00;;;;;;;2.64;76.29;97317.64;106045;1277;137200;-74
2022/02/22 04:47:31;;;;;;;3.50;1.70;;;;;;;2.59;76.48;97317.40;106160;1277;23929;-74
2022/02/22 04:49:58;;;;;;;1.90;1.50;;;;;;;2.54;76.39;97321.55;106119;1277;22588;-74
2022/02/22 04:52:25;;;;;;;1.60;1.50;;;;;;;2.49;76.64;97330.40;105937;1278;136849;-74
2022/02/22 04:54:52;;;;;;;3.00;2.40;;;;;;;2.44;76.70;97343.63;106041;1278;24302;-74
2022/02/22 04:57:19;;;;;;;3.70;2.00;;;;;;;2.41;76.76;97352.05;105967;1279;137788;-74
2022/02/22 04:59:46;;;;;;;2.70;1.60;;;;;;;2.41;76.67;97358.70;106011;1277;24218;-74
2022/02/22 05:02:13;;;;;;;3.60;2.60;;;;;;;2.41;76.69;97365.06;106052;1277;22706;-74
2022/02/22 05:04:40;;;;;;;3.00;1.90;;;;;;;2.40;76.79;97365.86;106057;1277;136955;-74
2022/02/22 05:07:21;;;;;;;4.90;2.10;;;;;;;2.33;76.86;97362.65;106002;1280;22580;-74
2022/02/22 05:09:48;;;;;;;2.90;2.10;;;;;;;2.33;76.85;97382.50;105800;1277;137076;-75
2022/02/22 05:12:15;;;;;;;1.90;1.80;;;;;;;2.27;76.92;97387.04;105848;1278;25268;-74
2022/02/22 05:14:42;;;;;;;2.20;2.00;;;;;;;2.26;76.77;97398.04;105983;1278;22672;-74
2022/02/22 05:17:09;;;;;;;3.80;1.70;;;;;;;2.23;76.63;97400.46;105849;1278;136560;-74
2022/02/22 05:19:36;;;;;;;2.50;1.20;;;;;;;2.20;76.75;97408.79;105732;1278;25928;-74
2022/02/22 05:22:04;;;;;;;3.20;1.60;;;;;;;2.15;76.54;97418.61;105876;1277;136992;-74
2022/02/22 05:24:31;;;;;;;2.50;1.50;;;;;;;2.11;76.49;97423.02;105912;1277;25254;-74
2022/02/22 05:27:12;;;;;;;5.00;1.40;;;;;;;2.05;76.61;97433.47;105823;1277;138256;-74
2022/02/22 05:29:39;;;;;;;3.70;2.00;;;;;;;2.01;76.63;97437.86;105968;1277;24291;-74
2022/02/22 05:32:07;;;;;;;4.90;2.10;;;;;;;1.99;76.55;97444.20;105727;1280;25422;-74
2022/02/22 05:34:36;;;;;;;1.50;1.40;;;;;;;1.96;76.55;97452.52;105738;1278;138173;-74
2022/02/22 05:37:04;;;;;;;3.40;1.20;;;;;;;1.91;76.68;97454.73;105771;1280;24226;-74
2022/02/22 05:39:31;;;;;;;2.20;1.20;;;;;;;1.86;76.66;97459.88;105778;1280;137112;-74
2022/02/22 05:41:58;;;;;;;5.90;2.10;;;;;;;1.82;76.78;97463.74;105859;1277;22545;-74
2022/02/22 05:44:25;;;;;;;2.60;1.30;;;;;;;1.78;76.89;97476.27;105906;1276;22606;-74
2022/02/22 05:46:52;;;;;;;2.90;1.70;;;;;;;1.75;77.03;97484.38;105912;1277;137619;-74
2022/02/22 05:49:19;;;;;;;6.90;1.90;;;;;;;1.75;77.22;97492.55;105972;1277;22553;-74
2022/02/22 05:51:46;;;;;;;3.00;2.00;;;;;;;1.73;77.38;97500.36;105884;1277;136887;-74
2022/02/22 05:54:27;;;;;;;5.10;2.60;;;;;;;1.69;77.50;97500.59;105716;1280;24215;-74
2022/02/22 05:56:54;;;;;;;8.80;3.30;;;;;;;1.65;77.82;97501.80;105695;1280;138334;-74
2022/02/22 05:59:21;;;;;;;8.10;3.00;;;;;;;1.62;78.09;97508.37;105818;1280;22547;-74
2022/02/22 06:01:48;;;;;;;7.30;4.60;;;;;;;1.61;78.33;97507.98;106002;1277;23095;-74
2022/02/22 06:04:15;;;;;;;10.00;4.00;;;;;;;1.62;78.51;97510.15;105808;1277;137511;-74
2022/02/22 06:06:42;;;;;;;6.70;3.30;;;;;;;1.63;78.55;97516.38;105889;1277;22613;-74
2022/02/22 06:09:09;;;;;;;8.30;4.00;;;;;;;1.65;78.63;97519.55;105801;1279;140583;-74
2022/02/22 06:11:37;;;;;;;12.30;5.80;;;;;;;1.67;78.77;97521.02;105882;1277;25270;-74
2022/02/22 06:14:04;;;;;;;7.80;3.60;;;;;;;1.68;78.76;97518.70;105978;1280;22631;-74
2022/02/22 06:16:32;;;;;;;11.80;4.30;;;;;;;1.68;78.70;97526.42;105723;1280;137127;-74
2022/02/22 06:18:59;;;;;;;8.70;4.20;;;;;;;1.68;78.68;97534.35;105808;1277;23922;-74
2022/02/22 06:21:26;;;;;;;10.90;4.50;;;;;;;1.69;78.91;97539.15;105707;1280;137607;-74
2022/02/22 06:24:07;;;;;;;10.80;3.90;;;;;;;1.73;78.80;97544.55;105938;1277;22957;-74
2022/02/22 06:26:34;;;;;;;7.40;3.60;;;;;;;1.76;78.77;97551.02;106021;1277;25261;-74
2022/02/22 06:29:01;;;;;;;6.50;3.10;;;;;;;1.79;78.76;97554.90;105712;1277;136722;-74
2022/02/22 06:31:28;;;;;;;8.50;3.10;;;;;;;1.82;78.79;97562.48;106290;1277;22499;-75
2022/02/22 06:33:55;;;;;;;9.20;3.10;;;;;;;1.83;78.82;97564.84;105662;1280;136795;-74
2022/02/22 06:36:22;;;;;;;8.10;3.20;;;;;;;1.85;79.02;97568.75;105831;1280;24398;-74
2022/02/22 06:38:50;;;;;;;8.90;3.30;;;;;;;1.86;79.11;97569.86;106113;1280;23925;-74
2022/02/22 06:41:17;;;;;;;5.90;2.50;;;;;;;1.87;79.26;97578.52;106326;1280;137127;-74
2022/02/22 06:43:44;;;;;;;7.00;2.50;;;;;;;1.89;79.49;97581.21;105993;1277;22701;-75
2022/02/22 06:46:11;;;;;;;6.90;3.00;;;;;;;1.93;79.42;97582.52;105571;1277;136874;-75
2022/02/22 06:48:39;;;;;;;7.50;2.30;;;;;;;1.95;79.51;97581.81;105768;1277;23293;-74
2022/02/22 06:51:07;;;;;;;7.30;2.90;;;;;;;1.98;79.44;97587.63;105805;1277;137837;-74
2022/02/22 06:53:35;;;;;;;10.50;3.50;;;;;;;2.01;79.57;97590.95;105925;1277;26497;-74
2022/02/22 06:56:03;;;;;;;7.80;3.50;;;;;;;2.05;79.44;97593.85;105761;1280;25278;-74
2022/02/22 06:58:30;;;;;;;8.50;2.90;;;;;;;2.08;79.37;97593.74;105850;1279;137218;-74
2022/02/22 07:00:58;;;;;;;7.40;2.60;;;;;;;2.11;79.13;97599.11;105673;1280;22562;-74
2022/02/22 07:03:39;;;;;;;7.50;2.80;;;;;;;2.17;79.38;97605.00;105981;1277;137005;-74
2022/02/22 07:06:07;;;;;;;8.00;2.60;;;;;;;2.21;79.58;97609.28;105998;1277;22541;-74
2022/02/22 07:08:34;;;;;;;8.50;3.40;;;;;;;2.23;79.58;97602.61;106015;1277;24398;-74
2022/02/22 07:11:01;;;;;;;8.20;3.00;;;;;;;2.27;79.83;97601.03;105904;1277;137608;-74
2022/02/22 07:13:29;;;;;;;13.40;3.50;;;;;;;2.33;79.64;97590.63;106116;1280;25379;-74
2022/02/22 07:15:56;;;;;;;13.20;3.40;;;;;;;2.35;79.64;97595.30;106169;1280;137434;-74
2022/02/22 07:18:24;;;;;;;6.80;3.50;;;;;;;2.39;79.66;97596.73;106070;1280;22674;-74
2022/02/22 07:20:53;;;;;;;5.20;3.10;;;;;;;2.42;79.60;97609.11;106384;1280;25376;-76
2022/02/22 07:23:20;;;;;;;7.70;3.70;;;;;;;2.47;79.62;97613.09;106181;1277;136533;-74
2022/02/22 07:26:01;;;;;;;6.00;3.00;;;;;;;2.55;79.56;97620.47;106114;1277;22712;-74
2022/02/22 07:28:29;;;;;;;8.20;3.60;;;;;;;2.64;79.61;97628.67;106175;1277;137268;-74
2022/02/22 07:30:57;;;;;;;9.70;3.90;;;;;;;2.74;79.53;97634.84;106314;1277;24944;-74
2022/02/22 07:33:25;;;;;;;11.80;4.70;;;;;;;2.82;79.21;97636.15;106597;1277;137222;-74
2022/02/22 07:35:53;;;;;;;7.30;3.90;;;;;;;2.88;79.05;97638.19;106343;1280;24276;-74
2022/02/22 07:38:21;;;;;;;11.70;5.10;;;;;;;2.93;78.79;97640.42;106286;1277;22644;-74
2022/02/22 07:41:03;;;;;;;9.10;4.90;;;;;;;2.98;78.51;97644.92;105876;1280;137425;-73
2022/02/22 07:43:31;;;;;;;9.10;3.90;;;;;;;3.03;78.00;97653.66;106039;1277;276827;-74
2022/02/22 07:45:59;;;;;;;7.70;3.70;;;;;;;3.10;77.79;97660.08;105953;1277;137016;-73
2022/02/22 07:48:26;;;;;;;8.40;4.10;;;;;;;3.14;77.67;97668.77;106442;1277;22570;-73
2022/02/22 07:50:54;;;;;;;9.60;3.70;;;;;;;3.17;77.73;97674.52;106356;1277;23927;-74
2022/02/22 07:53:25;;;;;;;10.90;5.70;;;;;;;3.17;77.97;97679.80;106007;1277;136655;-74
2022/02/22 07:55:53;;;;;;;10.10;4.30;;;;;;;3.19;78.03;97679.79;105899;1277;22588;-74
2022/02/22 07:58:21;;;;;;;7.40;3.40;;;;;;;3.23;78.00;97684.03;105975;1277;138001;-74
2022/02/22 08:00:48;;;;;;;9.40;4.10;;;;;;;3.27;77.92;97686.08;106135;1277;22698;-74
2022/02/22 08:03:15;;;;;;;6.70;4.30;;;;;;;3.30;77.85;97684.95;105954;1277;137622;-74
2022/02/22 08:05:42;;;;;;;11.40;4.40;;;;;;;3.33;77.60;97690.80;106238;1280;22554;-74
2022/02/22 08:08:11;;;;;;;12.40;5.00;;;;;;;3.36;77.49;97690.87;106342;1280;22541;-74
2022/02/22 08:10:38;;;;;;;8.40;4.30;;;;;;;3.43;77.61;97693.26;105897;1280;137320;-74
2022/02/22 08:13:05;;;;;;;8.70;4.20;;;;;;;3.51;77.35;97697.52;106537;1280;22693;-75
2022/02/22 08:15:32;;;;;;;13.80;5.20;;;;;;;3.58;77.43;97697.52;106010;1277;136930;-74
2022/02/22 08:17:59;;;;;;;11.40;4.20;;;;;;;3.63;76.97;97704.42;105980;1277;23919;-74
2022/02/22 08:20:27;;;;;;;9.00;4.70;;;;;;;3.66;76.60;97704.23;105823;1277;23032;-74
2022/02/22 08:22:54;;;;;;;13.60;4.90;;;;;;;3.67;76.74;97708.95;105953;1277;137469;-74
2022/02/22 08:25:21;;;;;;;12.80;4.70;;;;;;;3.72;77.32;97710.14;105877;1280;22558;-74
2022/02/22 08:27:48;;;;;;;7.90;3.40;;;;;;;3.80;77.13;97711.20;106024;1280;137350;-74
2022/02/22 08:30:16;;;;;;;8.90;4.10;;;;;;;3.84;76.89;97710.91;105944;1280;22742;-74
2022/02/22 08:32:43;;;;;;;7.20;3.70;;;;;;;3.90;76.67;97710.49;106045;1280;24225;-75
2022/02/22 08:35:11;;;;;;;10.60;4.10;;;;;;;3.95;76.68;97709.09;106149;1277;136677;-74
2022/02/22 08:37:39;;;;;;;8.10;5.30;;;;;;;4.00;76.61;97710.45;106074;1277;24029;-75
2022/02/22 08:40:08;;;;;;;12.80;5.00;;;;;;;4.05;76.26;97716.95;105945;1280;137191;-74
2022/02/22 08:42:36;;;;;;;11.00;4.20;;;;;;;4.11;76.27;97724.73;106199;1277;22569;-75
2022/02/22 08:45:03;;;;;;;12.10;5.10;;;;;;;4.18;76.39;97723.50;106274;1277;137413;-74
2022/02/22 08:47:31;;;;;;;14.80;4.60;;;;;;;4.27;76.06;97727.98;106077;1278;22563;-74
2022/02/22 08:49:59;;;;;;;7.80;3.80;;;;;;;4.35;75.78;97723.38;106125;1280;25415;-74
2022/02/22 08:52:40;;;;;;;10.30;3.40;;;;;;;4.41;74.55;97723.11;105725;1280;137862;-74
2022/02/22 08:55:22;;;;;;;20.60;6.50;;;;;;;4.44;74.39;97729.02;106279;1280;25319;-74
2022/02/22 08:57:49;;;;;;;22.90;7.60;;;;;;;4.48;74.23;97734.94;105980;1277;137631;-74
2022/02/22 09:00:18;;;;;;;8.50;3.90;;;;;;;4.54;73.84;97740.42;106331;1277;22560;-74
2022/02/22 09:02:47;;;;;;;8.30;3.40;;;;;;;4.56;73.59;97744.71;106042;1280;25274;-74
2022/02/22 09:05:15;;;;;;;13.30;4.50;;;;;;;4.62;73.87;97745.58;106364;1277;137256;-74
2022/02/22 09:07:45;;;;;;;9.30;3.20;;;;;;;4.69;73.30;97747.08;106172;1280;26492;-74
2022/02/22 09:10:13;;;;;;;8.20;2.90;;;;;;;4.74;72.98;97745.23;105873;1278;137237;-74
2022/02/22 09:12:43;;;;;;;15.50;6.20;;;;;;;4.79;73.24;97748.02;106053;1280;22548;-74
2022/02/22 09:15:12;;;;;;;21.60;7.80;;;;;;;4.86;72.82;97751.36;105942;1277;137219;-74
2022/02/22 09:17:40;;;;;;;7.40;3.50;;;;;;;4.89;72.13;97749.61;106130;1280;22567;-74
2022/02/22 09:20:11;;;;;;;6.50;3.60;;;;;;;4.95;72.14;97751.79;105972;1277;22564;-74
2022/02/22 09:22:39;;;;;;;9.30;2.90;;;;;;;5.03;72.10;97749.83;106031;1277;137262;-75
2022/02/22 09:25:11;;;;;;;8.20;2.50;;;;;;;5.12;71.99;97752.41;106078;1277;24152;-74
2022/02/22 09:27:44;;;;;;;5.90;2.10;;;;;;;5.20;71.58;97751.56;105921;1278;137682;-74
2022/02/22 09:30:21;;;;;;;6.60;2.40;;;;;;;5.27;71.19;97747.90;106171;1280;26513;-74
2022/02/22 09:33:10;;;;;;;11.40;2.20;;;;;;;5.34;71.06;97753.83;105879;1280;137494;-74
2022/02/22 09:35:37;;;;;;;6.60;2.80;;;;;;;5.40;70.85;97755.31;106067;1280;22583;-74
2022/02/22 09:38:04;;;;;;;4.80;2.10;;;;;;;5.44;71.23;97757.71;105926;1277;22564;-74
2022/02/22 09:40:32;;;;;;;4.50;2.10;;;;;;;5.46;70.37;97757.05;106001;1277;136967;-74
2022/02/22 09:43:13;;;;;;;4.10;1.60;;;;;;;5.42;69.57;97761.22;106069;1277;23046;-74
2022/02/22 09:45:40;;;;;;;3.80;1.70;;;;;;;5.35;69.19;97760.38;106001;1277;137744;-74
2022/02/22 09:48:08;;;;;;;5.70;1.70;;;;;;;5.25;69.40;97762.65;106044;1280;22550;-74
2022/02/22 09:50:36;;;;;;;5.80;2.00;;;;;;;5.22;70.00;97763.90;106006;1280;22547;-74
2022/02/22 09:53:05;;;;;;;3.40;1.60;;;;;;;5.24;70.23;97768.83;105920;1278;137391;-74
2022/02/22 09:55:32;;;;;;;5.80;1.70;;;;;;;5.27;70.39;97775.19;106305;1280;22700;-76
2022/02/22 09:58:02;;;;;;;4.40;1.50;;;;;;;5.29;70.07;97779.02;106252;1277;136930;-75
2022/02/22 10:00:43;;;;;;;5.30;1.90;;;;;;;5.30;70.28;97779.04;106072;1277;25429;-76
2022/02/22 10:03:18;;;;;;;4.80;1.70;;;;;;;5.31;70.26;97782.48;106045;1277;136888;-77
2022/02/22 10:05:57;;;;;;;5.80;2.00;;;;;;;5.30;70.26;97787.90;106141;1277;22554;-75
2022/02/22 10:08:39;;;;;;;6.50;1.60;;;;;;;5.30;70.04;97785.85;106055;1280;24065;-76
2022/02/22 10:11:16;;;;;;;4.00;1.50;;;;;;;5.33;69.93;97785.02;105875;1280;137415;-76
2022/02/22 10:14:03;;;;;;;4.10;1.10;;;;;;;5.45;70.19;97786.14;106136;1280;138207;-74
2022/02/22 10:16:43;;;;;;;4.70;1.80;;;;;;;5.59;69.82;97789.27;106297;1277;24400;-74
2022/02/22 10:19:15;;;;;;;4.40;1.60;;;;;;;5.65;70.02;97793.81;106325;1277;25510;-76
2022/02/22 10:21:51;;;;;;;4.30;2.20;;;;;;;5.66;70.20;97804.06;106424;1277;136739;-74
2022/02/22 10:24:25;;;;;;;13.30;2.10;;;;;;;5.70;70.01;97805.92;106749;1277;22576;-75
2022/02/22 10:27:03;;;;;;;4.30;1.70;;;;;;;5.75;69.99;97806.55;106580;1277;136956;-74
2022/02/22 10:29:32;;;;;;;3.10;1.20;;;;;;;5.78;69.51;97806.56;106630;1277;22736;-74
2022/02/22 10:32:10;;;;;;;3.10;1.40;;;;;;;5.78;69.66;97814.13;106110;1280;137248;-74
2022/02/22 10:34:37;;;;;;;6.60;2.30;;;;;;;5.88;70.43;97813.16;105999;1280;23921;-74
2022/02/22 10:37:05;;;;;;;5.20;2.20;;;;;;;6.05;70.66;97819.58;105936;1280;22552;-74
2022/02/22 10:39:32;;;;;;;5.60;1.60;;;;;;;6.13;69.03;97818.30;106793;1277;137063;-73
2022/02/22 10:41:59;;;;;;;6.40;1.90;;;;;;;6.13;68.95;97818.30;106452;1277;22636;-74
2022/02/22 10:44:39;;;;;;;4.40;1.80;;;;;;;6.12;68.89;97818.10;106076;1277;137038;-74
2022/02/22 10:47:21;;;;;;;3.40;1.30;;;;;;;6.11;68.53;97819.70;106107;1277;22586;-74
2022/02/22 10:49:49;;;;;;;5.20;2.20;;;;;;;6.05;68.32;97824.31;106264;1277;137449;-74
2022/02/22 10:52:17;;;;;;;4.50;2.00;;;;;;;5.95;68.27;97826.81;106384;1280;24411;-74
2022/02/22 10:54:44;;;;;;;5.50;1.60;;;;;;;5.93;68.37;97826.66;106665;1280;22856;-74
2022/02/22 10:57:12;;;;;;;4.90;1.90;;;;;;;5.91;68.06;97829.81;106141;1280;137317;-73
2022/02/22 10:59:39;;;;;;;4.90;1.90;;;;;;;5.83;67.99;97825.34;106013;1280;22586;-74
2022/02/22 11:02:06;;;;;;;3.20;2.10;;;;;;;5.78;68.19;97830.13;106110;1277;137298;-75
2022/02/22 11:04:35;;;;;;;4.40;1.80;;;;;;;5.71;68.41;97829.14;105974;1277;24322;-74
2022/02/22 11:07:03;;;;;;;3.50;2.00;;;;;;;5.66;69.60;97834.60;105731;1277;24324;-74
2022/02/22 11:09:30;;;;;;;6.70;2.80;;;;;;;5.63;70.25;97835.40;105770;1277;137244;-74
2022/02/22 11:12:05;;;;;;;4.90;2.10;;;;;;;5.64;70.59;97840.33;106248;1280;25362;-74
2022/02/22 11:14:34;;;;;;;3.90;1.80;;;;;;;5.65;69.90;97840.27;106184;1280;137119;-74
2022/02/22 11:17:19;;;;;;;2.80;1.70;;;;;;;5.66;69.83;97837.64;106049;1280;24276;-74
2022/02/22 11:19:46;;;;;;;6.70;1.70;;;;;;;5.70;69.55;97840.17;106039;1277;138150;-75
2022/02/22 11:22:23;;;;;;;7.50;1.70;;;;;;;5.76;68.56;97839.14;106255;1277;26621;-74
2022/02/22 11:24:53;;;;;;;5.60;2.10;;;;;;;5.83;68.44;97843.67;106144;1279;22592;-74
2022/02/22 11:27:30;;;;;;;4.50;1.70;;;;;;;5.97;68.54;97841.84;106088;1278;137166;-74
2022/02/22 11:30:12;;;;;;;6.10;2.10;;;;;;;6.19;68.40;97828.67;106350;1280;22562;-75
2022/02/22 11:32:57;;;;;;;7.20;3.30;;;;;;;6.29;67.44;97830.09;105978;1277;136969;-74
2022/02/22 11:35:52;;;;;;;3.40;1.50;;;;;;;6.36;65.61;97826.61;105848;1280;22553;-74